createdAt,value
2018-11-13T00:00:58.993Z,86.83
2018-11-13T00:03:27.463Z,89.23
2018-11-13T00:05:55.914Z,92.37
2018-11-13T00:08:24.430Z,87.07
2018-11-13T00:10:52.907Z,86.00
2018-11-13T00:13:21.390Z,79.70
2018-11-13T00:15:49.905Z,76.20
2018-11-13T00:18:18.378Z,79.70
2018-11-13T00:20:46.896Z,82.87
2018-11-13T00:23:15.412Z,78.97
2018-11-13T00:25:43.921Z,75.37
2018-11-13T00:28:15.623Z,81.20
2018-11-13T00:30:44.158Z,81.03
2018-11-13T00:33:12.703Z,84.10
2018-11-13T00:35:41.241Z,85.20
2018-11-13T00:38:09.860Z,80.03
2018-11-13T00:40:38.396Z,81.23
2018-11-13T00:43:06.937Z,85.03
2018-11-13T00:45:39.511Z,79.13
2018-11-13T00:48:07.967Z,79.63
2018-11-13T00:50:36.492Z,81.90
2018-11-13T00:53:05.047Z,78.47
2018-11-13T00:55:33.525Z,81.07
2018-11-13T00:58:02.002Z,80.47
2018-11-13T01:00:30.527Z,76.23
2018-11-13T01:02:59.064Z,74.07
2018-11-13T01:05:27.629Z,72.90
2018-11-13T01:07:56.099Z,71.73
2018-11-13T01:10:24.677Z,69.63
2018-11-13T01:12:53.199Z,73.30
2018-11-13T01:15:21.718Z,71.50
2018-11-13T01:17:50.583Z,69.63
2018-11-13T01:20:19.525Z,70.33
2018-11-13T01:22:48.042Z,65.07
2018-11-13T01:25:17.226Z,72.93
2018-11-13T01:27:46.080Z,69.70
2018-11-13T01:30:15.381Z,68.83
2018-11-13T01:32:44.369Z,70.67
2018-11-13T01:35:14.162Z,75.30
2018-11-13T01:37:42.740Z,73.00
2018-11-13T01:40:14.562Z,75.67
2018-11-13T01:42:43.306Z,69.10
2018-11-13T01:45:14.038Z,71.17
2018-11-13T01:47:42.526Z,67.80
2018-11-13T01:50:11.481Z,66.93
2018-11-13T01:52:40.021Z,65.33
2018-11-13T01:55:10.264Z,68.37
2018-11-13T01:57:38.787Z,72.47
2018-11-13T02:00:14.294Z,67.00
2018-11-13T02:02:42.920Z,72.63
2018-11-13T02:05:11.435Z,64.60
2018-11-13T02:07:39.990Z,67.77
2018-11-13T02:10:08.771Z,65.37
2018-11-13T02:12:37.390Z,60.47
2018-11-13T02:15:06.877Z,63.60
2018-11-13T02:17:35.519Z,59.47
2018-11-13T02:20:04.686Z,63.60
2018-11-13T02:22:33.264Z,63.63
2018-11-13T02:25:01.968Z,64.63
2018-11-13T02:27:30.467Z,61.80
2018-11-13T02:29:59.017Z,64.87
2018-11-13T02:32:27.539Z,64.10
2018-11-13T02:34:56.090Z,62.03
2018-11-13T02:37:24.668Z,67.97
2018-11-13T02:39:53.166Z,64.53
2018-11-13T02:42:21.835Z,62.30
2018-11-13T02:44:50.331Z,62.20
2018-11-13T02:47:18.925Z,60.83
2018-11-13T02:49:47.498Z,62.00
2018-11-13T02:52:16.074Z,59.33
2018-11-13T02:54:44.579Z,58.13
2018-11-13T02:57:13.156Z,62.27
2018-11-13T02:59:41.660Z,62.17
2018-11-13T03:02:11.003Z,60.00
2018-11-13T03:04:39.554Z,62.50
2018-11-13T03:07:08.132Z,61.83
2018-11-13T03:09:36.723Z,60.97
2018-11-13T03:12:05.362Z,59.97
2018-11-13T03:14:34.118Z,59.73
2018-11-13T03:17:02.728Z,62.30
2018-11-13T03:19:31.529Z,61.97
2018-11-13T03:22:00.038Z,63.60
2018-11-13T03:24:28.604Z,59.57
2018-11-13T03:26:57.188Z,54.33
2018-11-13T03:29:25.721Z,59.33
2018-11-13T03:31:54.360Z,59.27
2018-11-13T03:34:22.938Z,56.90
2018-11-13T03:36:51.517Z,59.30
2018-11-13T03:39:20.082Z,60.33
2018-11-13T03:41:48.591Z,55.70
2018-11-13T03:44:17.131Z,56.00
2018-11-13T03:46:45.702Z,54.57
2018-11-13T03:49:14.292Z,52.13
2018-11-13T03:51:42.883Z,52.43
2018-11-13T03:54:11.461Z,58.27
2018-11-13T03:56:40.044Z,56.33
2018-11-13T03:59:08.568Z,55.30
2018-11-13T04:01:37.147Z,58.57
2018-11-13T04:04:11.146Z,60.20
2018-11-13T04:06:39.709Z,61.67
2018-11-13T04:09:10.059Z,55.67
2018-11-13T04:11:38.924Z,57.07
2018-11-13T04:14:07.426Z,58.60
2018-11-13T04:16:36.482Z,59.87
2018-11-13T04:19:05.470Z,57.60
2018-11-13T04:21:34.300Z,57.70
2018-11-13T04:24:02.834Z,58.70
2018-11-13T04:26:31.382Z,58.47
2018-11-13T04:28:59.964Z,55.63
2018-11-13T04:31:28.500Z,56.03
2018-11-13T04:33:57.094Z,58.97
2018-11-13T04:36:25.642Z,55.97
2018-11-13T04:38:54.226Z,59.27
2018-11-13T04:41:22.738Z,55.70
2018-11-13T04:43:51.291Z,60.43
2018-11-13T04:46:19.813Z,61.83
2018-11-13T04:48:48.381Z,59.90
2018-11-13T04:51:16.880Z,69.30
2018-11-13T04:53:45.374Z,65.13
2018-11-13T04:56:13.986Z,62.73
2018-11-13T04:58:42.544Z,65.33
2018-11-13T05:01:11.191Z,63.70
2018-11-13T05:03:39.740Z,61.40
2018-11-13T05:06:08.304Z,59.90
2018-11-13T05:08:36.798Z,62.30
2018-11-13T05:11:05.700Z,60.87
2018-11-13T05:13:34.224Z,62.10
2018-11-13T05:16:02.728Z,60.60
2018-11-13T05:18:31.274Z,63.37
2018-11-13T05:20:59.769Z,60.30
2018-11-13T05:23:28.269Z,59.30
2018-11-13T05:25:56.808Z,60.27
2018-11-13T05:28:25.298Z,63.33
2018-11-13T05:30:53.774Z,69.80
2018-11-13T05:33:22.253Z,64.70
2018-11-13T05:35:50.709Z,62.60
2018-11-13T05:38:19.291Z,60.40
2018-11-13T05:40:47.874Z,70.77
2018-11-13T05:43:16.321Z,65.57
2018-11-13T05:45:44.824Z,66.63
2018-11-13T05:48:13.322Z,67.23
2018-11-13T05:50:41.766Z,66.43
2018-11-13T05:53:10.238Z,66.73
2018-11-13T05:55:38.711Z,65.80
2018-11-13T05:58:07.188Z,64.37
2018-11-13T06:00:35.701Z,64.03
2018-11-13T06:03:04.659Z,65.10
2018-11-13T06:05:33.601Z,66.43
2018-11-13T06:08:02.117Z,62.60
2018-11-13T06:10:30.591Z,68.03
2018-11-13T06:12:59.112Z,59.27
2018-11-13T06:15:27.620Z,61.20
2018-11-13T06:17:56.176Z,70.47
2018-11-13T06:20:24.776Z,62.33
2018-11-13T06:22:53.332Z,58.97
2018-11-13T06:25:21.785Z,57.93
2018-11-13T06:27:50.346Z,55.17
2018-11-13T06:30:26.177Z,58.57
2018-11-13T06:32:54.886Z,62.07
2018-11-13T06:35:23.395Z,56.73
2018-11-13T06:37:51.923Z,58.27
2018-11-13T06:40:20.366Z,58.00
2018-11-13T06:42:48.890Z,53.17
2018-11-13T06:45:19.624Z,57.87
2018-11-13T06:47:48.821Z,56.77
2018-11-13T06:50:17.425Z,61.53
2018-11-13T06:52:46.771Z,64.10
2018-11-13T06:55:23.890Z,61.83
2018-11-13T06:57:52.365Z,74.87
2018-11-13T07:00:20.829Z,52.73
2018-11-13T07:02:49.317Z,49.07
2018-11-13T07:05:18.522Z,53.03
2018-11-13T07:07:47.135Z,51.73
2018-11-13T07:10:18.035Z,51.67
2018-11-13T07:12:47.758Z,54.93
2018-11-13T07:15:19.374Z,56.50
2018-11-13T07:17:49.266Z,56.90
2018-11-13T07:20:18.891Z,54.47
2018-11-13T07:22:47.394Z,57.00
2018-11-13T07:25:15.915Z,59.40
2018-11-13T07:27:45.632Z,56.13
2018-11-13T07:30:15.202Z,51.80
2018-11-13T07:32:43.803Z,50.50
2018-11-13T07:35:13.524Z,56.20
2018-11-13T07:37:45.562Z,54.77
2018-11-13T07:40:14.066Z,54.70
2018-11-13T07:42:42.625Z,51.20
2018-11-13T07:45:13.548Z,53.07
2018-11-13T07:47:42.937Z,54.13
2018-11-13T07:50:12.158Z,50.43
2018-11-13T07:52:40.641Z,45.77
2018-11-13T07:55:10.253Z,41.87
2018-11-13T07:57:38.830Z,47.23
2018-11-13T08:00:12.768Z,46.37
2018-11-13T08:02:41.938Z,41.57
2018-11-13T08:05:10.516Z,45.60
2018-11-13T08:07:39.036Z,43.07
2018-11-13T08:10:08.305Z,40.83
2018-11-13T08:12:36.751Z,44.00
2018-11-13T08:15:06.602Z,46.77
2018-11-13T08:17:35.094Z,49.23
2018-11-13T08:20:03.675Z,50.03
2018-11-13T08:22:32.158Z,43.10
2018-11-13T08:25:00.621Z,45.33
2018-11-13T08:27:29.092Z,48.60
2018-11-13T08:29:57.547Z,50.33
2018-11-13T08:32:26.053Z,54.97
2018-11-13T08:34:54.592Z,54.63
2018-11-13T08:37:23.106Z,49.27
2018-11-13T08:39:51.674Z,48.63
2018-11-13T08:42:20.199Z,55.70
2018-11-13T08:44:48.693Z,50.10
2018-11-13T08:47:17.482Z,53.57
2018-11-13T08:49:45.974Z,66.83
2018-11-13T08:52:14.484Z,59.33
2018-11-13T08:54:42.957Z,58.73
2018-11-13T08:57:11.543Z,60.53
2018-11-13T08:59:40.088Z,58.17
2018-11-13T09:02:08.634Z,61.00
2018-11-13T09:04:37.165Z,62.47
2018-11-13T09:07:05.869Z,66.37
2018-11-13T09:09:34.372Z,63.07
2018-11-13T09:12:03.275Z,67.00
2018-11-13T09:14:31.713Z,70.10
2018-11-13T09:17:00.178Z,64.97
2018-11-13T09:19:28.870Z,61.77
2018-11-13T09:21:57.215Z,65.53
2018-11-13T09:24:25.743Z,57.00
2018-11-13T09:26:54.319Z,61.03
2018-11-13T09:29:22.850Z,55.57
2018-11-13T09:31:51.402Z,56.37
2018-11-13T09:34:19.862Z,43.27
2018-11-13T09:36:48.340Z,39.97
2018-11-13T09:39:16.865Z,38.47
2018-11-13T09:41:45.370Z,40.90
2018-11-13T09:44:13.889Z,39.87
2018-11-13T09:46:42.358Z,39.60
2018-11-13T09:49:10.838Z,38.40
2018-11-13T09:51:39.395Z,41.20
2018-11-13T09:54:07.877Z,42.90
2018-11-13T09:56:36.423Z,36.30
2018-11-13T09:59:05.210Z,45.20
2018-11-13T10:01:34.156Z,40.30
2018-11-13T10:04:03.684Z,39.37
2018-11-13T10:06:31.679Z,41.63
2018-11-13T10:09:00.187Z,39.97
2018-11-13T10:11:28.735Z,40.50
2018-11-13T10:13:57.429Z,40.40
2018-11-13T10:16:25.895Z,40.50
2018-11-13T10:18:54.402Z,40.63
2018-11-13T10:21:22.878Z,41.80
2018-11-13T10:23:51.407Z,39.30
2018-11-13T10:26:19.976Z,40.27
2018-11-13T10:28:48.407Z,41.17
2018-11-13T10:31:16.906Z,38.60
2018-11-13T10:33:45.370Z,39.33
2018-11-13T10:36:13.888Z,38.00
2018-11-13T10:38:42.354Z,37.77
2018-11-13T10:41:10.881Z,40.37
2018-11-13T10:43:39.336Z,38.73
2018-11-13T10:46:07.787Z,38.20
2018-11-13T10:48:36.282Z,34.23
2018-11-13T10:51:04.769Z,39.57
2018-11-13T10:53:33.238Z,36.57
2018-11-13T10:56:01.743Z,38.63
2018-11-13T10:58:30.202Z,41.73
2018-11-13T11:01:00.055Z,39.97
2018-11-13T11:03:33.893Z,39.70
2018-11-13T11:06:02.455Z,43.30
2018-11-13T11:08:30.927Z,42.37
2018-11-13T11:10:59.434Z,40.50
2018-11-13T11:13:27.961Z,41.30
2018-11-13T11:15:56.418Z,42.20
2018-11-13T11:18:24.914Z,42.47
2018-11-13T11:20:53.412Z,37.70
2018-11-13T11:23:21.941Z,43.87
2018-11-13T11:25:50.422Z,37.17
2018-11-13T11:28:18.888Z,34.63
2018-11-13T11:30:47.434Z,40.13
2018-11-13T11:33:15.950Z,37.53
2018-11-13T11:35:44.578Z,33.23
2018-11-13T11:38:13.151Z,37.27
2018-11-13T11:40:41.617Z,37.90
2018-11-13T11:43:10.125Z,40.40
2018-11-13T11:45:39.272Z,33.43
2018-11-13T11:48:07.750Z,27.13
2018-11-13T11:50:36.214Z,28.37
2018-11-13T11:53:04.715Z,24.33
2018-11-13T11:55:33.180Z,36.50
2018-11-13T11:58:01.728Z,32.70
2018-11-13T12:00:34.609Z,31.63
2018-11-13T12:03:03.154Z,27.07
2018-11-13T12:05:31.662Z,33.50
2018-11-13T12:08:00.259Z,33.97
2018-11-13T12:10:28.870Z,31.83
2018-11-13T12:12:57.351Z,38.30
2018-11-13T12:15:25.870Z,34.40
2018-11-13T12:17:54.380Z,32.07
2018-11-13T12:20:22.886Z,32.57
2018-11-13T12:22:51.509Z,37.37
2018-11-13T12:25:20.668Z,33.70
2018-11-13T12:27:49.135Z,32.17
2018-11-13T12:30:18.787Z,29.77
2018-11-13T12:32:48.194Z,32.90
2018-11-13T12:35:17.592Z,31.07
2018-11-13T12:37:46.089Z,35.40
2018-11-13T12:40:21.968Z,37.33
2018-11-13T12:42:50.852Z,35.80
2018-11-13T12:45:19.696Z,38.93
2018-11-13T12:47:48.213Z,39.10
2018-11-13T12:50:17.918Z,37.20
2018-11-13T12:52:46.498Z,36.57
2018-11-13T12:55:22.942Z,34.87
2018-11-13T12:57:51.498Z,39.43
2018-11-13T13:00:22.317Z,41.40
2018-11-13T13:02:50.974Z,40.43
2018-11-13T13:05:19.639Z,40.13
2018-11-13T13:07:48.147Z,37.30
2018-11-13T13:10:17.779Z,39.13
2018-11-13T13:12:46.312Z,41.87
2018-11-13T13:15:15.988Z,36.47
2018-11-13T13:17:44.798Z,37.43
2018-11-13T13:20:17.565Z,39.63
2018-11-13T13:22:47.052Z,38.50
2018-11-13T13:25:16.655Z,42.17
2018-11-13T13:27:45.194Z,40.83
2018-11-13T13:30:15.777Z,40.73
2018-11-13T13:32:44.719Z,42.83
2018-11-13T13:36:04.655Z,41.33
2018-11-13T13:38:36.636Z,37.73
2018-11-13T13:41:05.518Z,40.83
2018-11-13T13:43:34.561Z,38.83
2018-11-13T13:46:03.048Z,39.13
2018-11-13T13:48:31.531Z,36.03
2018-11-13T13:51:00.028Z,39.63
2018-11-13T13:53:28.741Z,39.33
2018-11-13T13:55:57.282Z,38.73
2018-11-13T13:58:26.159Z,38.43
2018-11-13T14:00:55.434Z,42.37
2018-11-13T14:03:24.167Z,38.50
2018-11-13T14:05:52.776Z,41.77
2018-11-13T14:08:21.268Z,46.17
2018-11-13T14:10:49.773Z,58.10
2018-11-13T14:13:18.293Z,59.37
2018-11-13T14:15:46.815Z,56.30
2018-11-13T14:18:15.357Z,56.17
2018-11-13T14:20:43.913Z,52.33
2018-11-13T14:23:12.393Z,46.87
2018-11-13T14:25:40.890Z,48.87
2018-11-13T14:28:09.390Z,42.73
2018-11-13T14:30:38.255Z,47.17
2018-11-13T14:33:10.074Z,48.43
2018-11-13T14:35:38.681Z,46.40
2018-11-13T14:38:07.312Z,55.83
2018-11-13T14:40:38.233Z,51.67
2018-11-13T14:43:07.059Z,51.10
2018-11-13T14:45:35.558Z,51.77
2018-11-13T14:48:04.112Z,50.20
2018-11-13T14:50:34.019Z,48.00
2018-11-13T14:53:02.615Z,44.97
2018-11-13T14:55:32.649Z,50.80
2018-11-13T14:58:02.021Z,53.90
2018-11-13T15:00:31.658Z,70.77
2018-11-13T15:03:00.827Z,73.70
2018-11-13T15:05:29.931Z,83.63
2018-11-13T15:07:59.801Z,78.07
2018-11-13T15:10:32.479Z,71.43
2018-11-13T15:13:01.098Z,72.37
2018-11-13T15:15:29.597Z,67.80
2018-11-13T15:17:58.137Z,66.37
2018-11-13T15:20:26.670Z,71.17
2018-11-13T15:22:55.204Z,64.23
2018-11-13T15:25:23.851Z,70.93
2018-11-13T15:27:52.310Z,64.13
2018-11-13T15:30:22.467Z,68.27
2018-11-13T15:32:53.521Z,70.97
2018-11-13T15:35:22.043Z,61.53
2018-11-13T15:37:50.552Z,67.97
2018-11-13T15:40:23.546Z,65.53
2018-11-13T15:42:52.331Z,64.73
2018-11-13T15:45:21.211Z,80.73
2018-11-13T15:47:50.515Z,76.53
2018-11-13T15:50:21.175Z,77.03
2018-11-13T15:52:50.005Z,66.23
2018-11-13T15:55:19.153Z,66.60
2018-11-13T15:57:48.071Z,66.67
2018-11-13T16:00:28.838Z,70.43
2018-11-13T16:02:58.434Z,71.73
2018-11-13T16:05:31.168Z,73.80
2018-11-13T16:08:00.518Z,86.10
2018-11-13T16:10:29.000Z,91.00
2018-11-13T16:12:57.632Z,86.27
2018-11-13T16:15:26.661Z,90.83
2018-11-13T16:17:56.366Z,103.30
2018-11-13T16:20:26.183Z,105.53
2018-11-13T16:22:54.747Z,103.47
2018-11-13T16:25:23.305Z,90.57
2018-11-13T16:27:51.747Z,89.80
2018-11-13T16:30:23.372Z,85.10
2018-11-13T16:32:52.289Z,87.70
2018-11-13T16:35:21.957Z,80.77
2018-11-13T16:37:51.124Z,70.63
2018-11-13T16:40:21.245Z,74.13
2018-11-13T16:42:50.809Z,70.57
2018-11-13T16:45:21.116Z,69.90
2018-11-13T16:47:50.747Z,66.87
2018-11-13T16:50:35.585Z,66.37
2018-11-13T16:53:04.189Z,65.03
2018-11-13T16:55:37.826Z,64.83
2018-11-13T16:58:07.489Z,62.70
2018-11-13T17:00:38.025Z,59.70
2018-11-13T17:03:06.611Z,59.77
2018-11-13T17:05:35.273Z,62.67
2018-11-13T17:08:03.702Z,63.40
2018-11-13T17:10:33.059Z,57.17
2018-11-13T17:13:02.122Z,57.43
2018-11-13T17:15:31.539Z,58.97
2018-11-13T17:18:01.168Z,60.63
2018-11-13T17:20:29.805Z,65.30
2018-11-13T17:22:58.273Z,61.30
2018-11-13T17:25:28.367Z,62.17
2018-11-13T17:27:57.256Z,63.00
2018-11-13T17:30:27.637Z,60.73
2018-11-13T17:32:57.769Z,63.13
2018-11-13T17:35:27.002Z,67.73
2018-11-13T17:37:56.125Z,72.17
2018-11-13T17:40:25.792Z,68.33
2018-11-13T17:42:55.550Z,66.63
2018-11-13T17:45:33.816Z,69.40
2018-11-13T17:48:02.364Z,66.60
2018-11-13T17:50:32.566Z,70.87
2018-11-13T17:53:01.150Z,72.07
2018-11-13T17:55:29.745Z,67.13
2018-11-13T17:58:00.593Z,70.30
2018-11-13T18:00:36.834Z,68.53
2018-11-13T18:03:07.440Z,73.43
2018-11-13T18:05:36.231Z,69.20
2018-11-13T18:08:05.384Z,69.83
2018-11-13T18:10:34.792Z,69.23
2018-11-13T18:13:03.427Z,74.83
2018-11-13T18:15:31.985Z,74.33
2018-11-13T18:18:00.593Z,68.33
2018-11-13T18:20:32.184Z,69.80
2018-11-13T18:23:00.812Z,70.10
2018-11-13T18:25:29.458Z,72.30
2018-11-13T18:27:59.385Z,67.80
2018-11-13T18:30:29.546Z,65.30
2018-11-13T18:32:58.916Z,65.37
2018-11-13T18:35:29.899Z,67.17
2018-11-13T18:37:59.562Z,66.73
2018-11-13T18:40:28.613Z,68.63
2018-11-13T18:42:58.631Z,68.57
2018-11-13T18:45:29.678Z,72.53
2018-11-13T18:47:58.490Z,71.00
2018-11-13T18:50:32.206Z,70.30
2018-11-13T18:53:01.003Z,67.53
2018-11-13T18:55:29.724Z,68.10
2018-11-13T18:57:59.032Z,72.17
2018-11-13T19:00:29.798Z,69.77
2018-11-13T19:02:59.201Z,69.03
2018-11-13T19:05:28.354Z,70.37
2018-11-13T19:07:57.232Z,71.67
2018-11-13T19:10:33.515Z,67.17
2018-11-13T19:13:03.215Z,72.10
2018-11-13T19:15:33.475Z,72.13
2018-11-13T19:18:02.281Z,73.27
2018-11-13T19:20:31.372Z,74.70
2018-11-13T19:23:00.187Z,74.87
2018-11-13T19:25:30.344Z,73.90
2018-11-13T19:27:59.618Z,75.87
2018-11-13T19:30:28.396Z,73.47
2018-11-13T19:32:57.186Z,80.37
2018-11-13T19:35:26.430Z,80.60
2018-11-13T19:37:55.852Z,78.93
2018-11-13T19:40:25.880Z,86.87
2018-11-13T19:42:55.619Z,87.87
2018-11-13T19:45:24.538Z,87.33
2018-11-13T19:47:53.351Z,82.43
2018-11-13T19:50:23.569Z,95.20
2018-11-13T19:52:52.408Z,81.13
2018-11-13T19:55:21.774Z,86.53
2018-11-13T19:57:50.630Z,85.03
2018-11-13T20:00:20.748Z,90.37
2018-11-13T20:02:50.739Z,82.50
2018-11-13T20:05:21.470Z,79.23
2018-11-13T20:07:50.225Z,84.73
2018-11-13T20:10:22.296Z,83.03
2018-11-13T20:12:56.448Z,88.83
2018-11-13T20:15:26.144Z,87.37
2018-11-13T20:17:54.814Z,81.30
2018-11-13T20:20:24.770Z,81.03
2018-11-13T20:22:54.544Z,86.30
2018-11-13T20:25:24.287Z,81.57
2018-11-13T20:27:52.837Z,72.53
2018-11-13T20:30:22.759Z,71.43
2018-11-13T20:32:51.406Z,72.40
2018-11-13T20:35:20.088Z,69.27
2018-11-13T20:37:50.355Z,62.07
2018-11-13T20:40:21.866Z,61.77
2018-11-13T20:42:51.713Z,58.47
2018-11-13T20:45:20.450Z,54.33
2018-11-13T20:47:49.129Z,49.93
2018-11-13T20:50:21.089Z,47.97
2018-11-13T20:52:49.629Z,44.93
2018-11-13T20:55:18.204Z,42.17
2018-11-13T20:57:46.842Z,40.13
2018-11-13T21:00:18.778Z,39.30
2018-11-13T21:02:47.629Z,32.90
2018-11-13T21:05:17.167Z,34.83
2018-11-13T21:07:46.149Z,29.20
2018-11-13T21:10:16.236Z,25.30
2018-11-13T21:12:45.458Z,22.03
2018-11-13T21:15:16.465Z,18.93
2018-11-13T21:17:45.798Z,17.33
2018-11-13T21:20:18.441Z,17.47
2018-11-13T21:22:47.115Z,13.93
2018-11-13T21:25:18.092Z,13.73
2018-11-13T21:27:46.846Z,12.43
2018-11-13T21:30:17.690Z,10.47
2018-11-13T21:32:48.984Z,10.17
2018-11-13T21:35:18.059Z,9.63
2018-11-13T21:37:47.956Z,11.07
2018-11-13T21:40:18.700Z,8.90
2018-11-13T21:42:48.734Z,9.83
2018-11-13T21:45:19.190Z,9.33
2018-11-13T21:47:48.410Z,8.03
2018-11-13T21:50:19.377Z,8.30
2018-11-13T21:52:47.955Z,8.43
2018-11-13T21:55:18.124Z,9.90
2018-11-13T21:57:46.717Z,12.93
2018-11-13T22:00:20.519Z,22.07
2018-11-13T22:02:54.780Z,23.43
2018-11-13T22:05:24.049Z,26.17
2018-11-13T22:07:53.476Z,23.60
2018-11-13T22:10:28.830Z,27.47
2018-11-13T22:12:57.454Z,27.57
2018-11-13T22:15:27.352Z,29.83
2018-11-13T22:17:56.043Z,32.43
2018-11-13T22:20:25.300Z,32.67
2018-11-13T22:22:56.240Z,34.07
2018-11-13T22:25:26.093Z,31.53
2018-11-13T22:27:55.940Z,30.50
2018-11-13T22:30:27.716Z,29.37
2018-11-13T22:32:56.438Z,32.57
2018-11-13T22:35:25.061Z,33.43
2018-11-13T22:37:53.672Z,33.10
2018-11-13T22:40:23.722Z,37.10
2018-11-13T22:42:52.404Z,37.73
2018-11-13T22:45:22.183Z,36.97
2018-11-13T22:47:51.016Z,42.70
2018-11-13T22:50:21.948Z,40.97
2018-11-13T22:52:50.810Z,42.93
2018-11-13T22:55:19.996Z,44.77
2018-11-13T22:57:49.416Z,37.20
2018-11-13T23:00:20.333Z,35.90
2018-11-13T23:02:50.619Z,35.27
2018-11-13T23:05:19.262Z,34.17
2018-11-13T23:07:47.947Z,34.33
2018-11-13T23:10:17.973Z,26.97
2018-11-13T23:12:46.760Z,26.57
2018-11-13T23:15:19.882Z,25.50
2018-11-13T23:17:48.466Z,22.83
2018-11-13T23:20:19.481Z,22.50
2018-11-13T23:22:48.120Z,26.00
2018-11-13T23:25:18.716Z,29.00
2018-11-13T23:27:49.424Z,26.53
2018-11-13T23:30:19.862Z,30.00
2018-11-13T23:32:48.696Z,27.10
2018-11-13T23:35:17.398Z,28.27
2018-11-13T23:37:47.533Z,32.13
2018-11-13T23:40:18.253Z,31.87
2018-11-13T23:42:47.257Z,32.03
2018-11-13T23:45:16.877Z,34.27
2018-11-13T23:47:45.781Z,33.80
2018-11-13T23:50:14.632Z,33.20
2018-11-13T23:52:43.707Z,34.07
2018-11-13T23:55:13.666Z,34.30
2018-11-13T23:57:42.782Z,31.30
